Moose Pass, Alaska
Current Conditions -  °F | °C
As of 9:53 AM on Friday 24 Oct 2014 (Local Time) from PAWD Reporting Station
Overcast Overcast  
Wind Chill: 26°   Ceiling: 11000
Heat Index: 34°   Visibility: 10mi
Dew Point: 26°   Wind: 10mph
Humidity: 73%   Direction: 360°N
Pressure: 29.76"   Gusts: NA
Location:  60.49°N, 149.38°W
Report Text: PAWD 241753Z AUTO 36009KT 10SM OVC110 01/M03 A2976 RMK AO2 SLP077 T00111033 10022 20011 53004 TSNO
Loading
Personal Weather Stations






























Interactive Weather Map
Tropical Storm Tracking
New forecast layout! Learn more

10-Day Weather Forecast

Advertisements
Track Severe Weather on mobile